Time;durP1;ratioP1;P1;durP2;ratioP2;P2;SDS_P1;SDS_P2;PMS_P1;PMS_P2;Temp;Humidity;BMP_temperature;BMP_pressure;BME280_temperature;BME280_humidity;BME280_pressure;Samples;Min_cycle;Max_cycle;Signal;HPM_P1;HPM_P2
2022/01/01 00:00:39;;;;;;;4.07;2.60;;;18.40;84.80;;;;;;5064715;28;45307;-83
2022/01/01 00:03:09;;;;;;;4.85;2.80;;;18.40;85.30;;;;;;5065202;28;45517;-83
2022/01/01 00:05:39;;;;;;;3.90;2.50;;;18.30;84.90;;;;;;5066636;28;45281;-83
2022/01/01 00:08:11;;;;;;;4.40;2.33;;;18.50;85.90;;;;;;5078126;28;45287;-83
2022/01/01 00:10:49;;;;;;;3.38;2.20;;;17.70;86.10;;;;;;5066905;28;45286;-83
2022/01/01 00:13:22;;;;;;;4.03;2.55;;;18.60;90.10;;;;;;5069223;28;45428;-83
2022/01/01 00:15:50;;;;;;;3.72;2.47;;;18.50;89.50;;;;;;5076128;28;47823;-83
2022/01/01 00:18:24;;;;;;;4.18;2.70;;;18.50;88.30;;;;;;5071092;28;45296;-83
2022/01/01 00:20:53;;;;;;;3.47;2.22;;;18.50;85.50;;;;;;5083020;28;45292;-83
2022/01/01 00:23:21;;;;;;;3.58;2.17;;;18.70;85.30;;;;;;5083646;28;45096;-83
2022/01/01 00:25:51;;;;;;;4.30;2.30;;;18.60;86.80;;;;;;5063670;28;48151;-83
2022/01/01 00:28:31;;;;;;;3.30;2.40;;;18.20;87.10;;;;;;5088614;28;45651;-83
2022/01/01 00:31:08;;;;;;;3.65;2.20;;;18.80;86.10;;;;;;5064429;28;45323;-83
2022/01/01 00:33:35;;;;;;;3.72;2.40;;;18.40;85.40;;;;;;5083976;28;45423;-83
2022/01/01 00:36:05;;;;;;;3.75;2.28;;;18.40;85.20;;;;;;5078956;28;46628;-83
2022/01/01 00:41:29;;;;;;;3.13;2.00;;;16.50;84.40;;;;;;5071540;28;45187;-83
2022/01/01 00:44:02;;;;;;;5.32;2.90;;;18.40;84.90;;;;;;5074754;28;45272;-83
2022/01/01 00:46:30;;;;;;;3.85;2.47;;;18.50;87.00;;;;;;5078003;28;47449;-83
2022/01/01 00:49:00;;;;;;;4.75;3.20;;;18.60;89.10;;;;;;5081332;28;45309;-83
2022/01/01 00:51:29;;;;;;;4.15;2.75;;;20.30;90.60;;;;;;5061364;28;45065;-83
2022/01/01 00:53:57;;;;;;;3.83;2.53;;;18.40;85.10;;;;;;5082379;28;45458;-82
2022/01/01 00:56:25;;;;;;;4.93;2.90;;;18.50;85.20;;;;;;5082857;27;46955;-83
2022/01/01 00:58:52;;;;;;;4.55;2.85;;;18.40;85.40;;;;;;5087310;28;45246;-83
2022/01/01 01:01:26;;;;;;;4.05;2.83;;;18.60;88.50;;;;;;5087266;27;44961;-83
2022/01/01 01:03:55;;;;;;;4.07;2.75;;;18.60;85.50;;;;;;5066545;28;45315;-83
2022/01/01 01:06:23;;;;;;;4.38;3.17;;;18.10;85.60;;;;;;5095320;27;46624;-83
2022/01/01 01:08:58;;;;;;;5.38;3.45;;;18.40;85.70;;;;;;5072638;28;45225;-83
2022/01/01 01:11:25;;;;;;;6.35;3.20;;;18.40;87.90;;;;;;5074599;28;45224;-83
2022/01/01 01:13:58;;;;;;;6.13;4.00;;;17.70;87.90;;;;;;5099469;28;45390;-83
2022/01/01 01:16:42;;;;;;;4.53;3.35;;;18.70;86.70;;;;;;5100815;28;47718;-83
2022/01/01 01:19:11;;;;;;;5.18;3.67;;;18.40;85.40;;;;;;5074026;28;45318;-84
2022/01/01 01:21:43;;;;;;;4.28;3.42;;;18.50;90.30;;;;;;5071130;28;46718;-83
2022/01/01 01:24:12;;;;;;;5.13;3.55;;;20.40;89.10;;;;;;5088260;28;45234;-83
2022/01/01 01:26:49;;;;;;;7.38;4.32;;;19.20;90.00;;;;;;5092724;28;46867;-83
2022/01/01 01:29:24;;;;;;;6.18;4.60;;;18.60;85.40;;;;;;5073984;28;45310;-83
2022/01/01 01:32:15;;;;;;;5.95;3.97;;;20.10;89.90;;;;;;5063011;28;45114;-83
2022/01/01 01:34:42;;;;;;;5.03;3.75;;;18.50;85.20;;;;;;5078131;28;45385;-83
2022/01/01 01:37:10;;;;;;;5.25;3.88;;;18.50;88.90;;;;;;5069253;28;46647;-83
2022/01/01 01:39:39;;;;;;;5.57;3.50;;;20.60;90.70;;;;;;5079563;28;45411;-83
2022/01/01 01:42:09;;;;;;;6.05;3.83;;;18.70;90.00;;;;;;5080346;28;45197;-83
2022/01/01 01:44:47;;;;;;;5.68;4.28;;;18.60;85.60;;;;;;5086051;28;45238;-83
2022/01/01 01:47:28;;;;;;;5.28;3.83;;;17.10;86.90;;;;;;5060017;28;46115;-83
2022/01/01 01:49:58;;;;;;;6.45;4.47;;;19.20;89.40;;;;;;5072298;28;45232;-82
2022/01/01 01:52:26;;;;;;;6.28;4.00;;;20.90;88.40;;;;;;5079819;28;45210;-83
2022/01/01 01:54:58;;;;;;;6.07;4.40;;;18.40;85.10;;;;;;5060238;28;45334;-82
2022/01/01 01:57:35;;;;;;;8.50;4.90;;;18.40;85.20;;;;;;5063115;28;47960;-82
2022/01/01 02:00:13;;;;;;;5.38;4.13;;;18.40;85.00;;;;;;5061263;28;45357;-82
2022/01/01 02:02:47;;;;;;;6.30;4.25;;;18.40;85.10;;;;;;5058397;28;45246;-82
2022/01/01 02:05:18;;;;;;;6.93;4.13;;;18.40;85.10;;;;;;5082313;28;45461;-83
2022/01/01 02:07:46;;;;;;;6.45;4.75;;;18.40;88.80;;;;;;5060305;28;45652;-83
2022/01/01 02:10:14;;;;;;;6.32;4.38;;;18.40;89.60;;;;;;5074902;27;45234;-83
2022/01/01 02:12:51;;;;;;;5.97;4.00;;;18.40;85.00;;;;;;5079100;28;45472;-83
2022/01/01 02:15:42;;;;;;;5.65;3.50;;;18.40;84.70;;;;;;5058622;28;45218;-82
2022/01/01 02:18:12;;;;;;;5.28;3.70;;;18.50;84.80;;;;;;5058554;28;48073;-82
2022/01/01 02:20:49;;;;;;;6.80;4.10;;;18.50;84.90;;;;;;5057998;28;45125;-82
2022/01/01 02:23:24;;;;;;;5.40;3.55;;;18.30;84.80;;;;;;5066643;28;45105;-82
2022/01/01 02:25:56;;;;;;;5.65;3.45;;;18.50;86.50;;;;;;5077913;28;45084;-82
2022/01/01 02:28:24;;;;;;;6.05;3.63;;;18.50;84.60;;;;;;5086324;28;45539;-82
2022/01/01 02:30:54;;;;;;;4.65;3.60;;;18.50;84.50;;;;;;5062598;28;45097;-82
2022/01/01 02:33:22;;;;;;;5.00;3.40;;;18.40;84.50;;;;;;5085579;28;45323;-82
2022/01/01 02:35:53;;;;;;;5.55;3.30;;;18.50;84.50;;;;;;5058970;28;45254;-82
2022/01/01 02:38:28;;;;;;;5.32;3.47;;;18.50;84.50;;;;;;5067051;28;46867;-83
2022/01/01 02:40:56;;;;;;;4.65;3.25;;;18.50;84.90;;;;;;5075691;28;45296;-82
2022/01/01 02:46:17;;;;;;;4.50;3.13;;;18.70;84.90;;;;;;5061448;28;45463;-82
2022/01/01 02:48:45;;;;;;;4.97;3.00;;;18.80;88.00;;;;;;5073767;28;46679;-82
2022/01/01 02:51:18;;;;;;;5.32;3.15;;;18.50;86.20;;;;;;5060369;28;45848;-82
2022/01/01 02:53:47;;;;;;;4.47;3.10;;;18.60;85.10;;;;;;5081515;28;45408;-83
2022/01/01 02:56:15;;;;;;;5.05;3.35;;;18.40;87.10;;;;;;5059375;28;45086;-84
2022/01/01 02:58:43;;;;;;;4.60;3.08;;;18.40;85.90;;;;;;5059317;28;47395;-84
2022/01/01 03:01:14;;;;;;;3.58;2.63;;;18.40;85.90;;;;;;5059793;28;45267;-84
2022/01/01 03:03:42;;;;;;;4.47;3.10;;;18.40;88.40;;;;;;5079620;28;45290;-84
2022/01/01 03:06:10;;;;;;;4.70;2.70;;;19.40;88.80;;;;;;5079003;28;45128;-84
2022/01/01 03:08:48;;;;;;;3.83;2.72;;;20.70;90.50;;;;;;5076795;28;48663;-84
2022/01/01 03:11:16;;;;;;;4.78;2.80;;;20.80;90.30;;;;;;5077803;28;45264;-84
2022/01/01 03:13:45;;;;;;;3.35;2.60;;;18.80;89.40;;;;;;5088025;28;45223;-84
2022/01/01 03:16:14;;;;;;;5.13;2.72;;;21.00;90.50;;;;;;5099445;27;45085;-83
2022/01/01 03:18:44;;;;;;;3.35;2.40;;;18.80;89.70;;;;;;5069768;27;46684;-84
2022/01/01 03:21:14;;;;;;;3.75;2.42;;;18.80;89.50;;;;;;5078437;28;45779;-84
2022/01/01 03:23:44;;;;;;;3.13;2.53;;;18.70;88.50;;;;;;5061523;28;45283;-84
2022/01/01 03:26:12;;;;;;;3.58;2.53;;;18.70;85.20;;;;;;5075733;28;45205;-84
2022/01/01 03:28:43;;;;;;;3.63;2.65;;;18.70;89.50;;;;;;5082887;28;45787;-84
2022/01/01 03:31:11;;;;;;;3.92;2.50;;;18.60;90.50;;;;;;5065281;28;45549;-84
2022/01/01 03:33:45;;;;;;;3.60;2.67;;;18.50;85.60;;;;;;5079478;28;45244;-84
2022/01/01 03:36:14;;;;;;;4.43;2.83;;;18.50;85.70;;;;;;5087416;28;45115;-84
2022/01/01 03:38:54;;;;;;;3.08;2.28;;;18.70;88.30;;;;;;5069375;28;45674;-83
2022/01/01 03:41:23;;;;;;;5.45;2.88;;;18.60;88.20;;;;;;5064464;28;46064;-84
2022/01/01 03:43:52;;;;;;;4.32;2.53;;;18.50;85.40;;;;;;5085567;28;45277;-84
2022/01/01 03:46:24;;;;;;;4.40;2.67;;;18.90;90.50;;;;;;5080978;28;45481;-84
2022/01/01 03:48:57;;;;;;;3.80;2.70;;;18.90;90.00;;;;;;5080882;28;46354;-84
2022/01/01 03:51:26;;;;;;;5.20;3.05;;;18.40;85.70;;;;;;5081679;28;45387;-83
2022/01/01 03:53:58;;;;;;;4.32;2.60;;;18.40;85.10;;;;;;5080844;28;45304;-83
2022/01/01 03:56:25;;;;;;;4.13;2.78;;;18.70;89.60;;;;;;5079007;28;45218;-84
2022/01/01 03:59:02;;;;;;;4.05;2.67;;;19.70;90.10;;;;;;5069343;28;47806;-84
2022/01/01 04:01:29;;;;;;;4.00;2.80;;;18.80;88.20;;;;;;5077041;28;45383;-83
2022/01/01 04:03:58;;;;;;;3.63;2.60;;;20.40;89.10;;;;;;5071755;28;45172;-84
2022/01/01 04:06:28;;;;;;;4.13;2.85;;;18.50;86.30;;;;;;5077011;28;45514;-83
2022/01/01 04:09:00;;;;;;;3.13;2.42;;;18.40;90.30;;;;;;5066282;28;45467;-83
2022/01/01 04:11:29;;;;;;;4.13;2.80;;;16.30;87.90;;;;;;5076581;28;45137;-84
2022/01/01 04:13:59;;;;;;;3.60;2.50;;;19.80;90.20;;;;;;5082861;28;45186;-84
2022/01/01 04:16:28;;;;;;;4.05;2.38;;;21.00;90.90;;;;;;5066274;28;45341;-83
2022/01/01 04:18:56;;;;;;;4.03;2.75;;;17.10;88.10;;;;;;5072915;28;45258;-84
2022/01/01 04:21:24;;;;;;;4.28;2.85;;;18.80;89.40;;;;;;5068462;28;45231;-83
2022/01/01 04:23:51;;;;;;;3.67;2.45;;;19.70;90.00;;;;;;5077017;28;45326;-83
2022/01/01 04:26:24;;;;;;;3.50;2.58;;;20.70;90.50;;;;;;5085297;28;45386;-83
2022/01/01 04:28:53;;;;;;;2.65;2.10;;;20.20;88.00;;;;;;5089357;28;46628;-83
2022/01/01 04:31:20;;;;;;;5.18;2.70;;;18.90;85.30;;;;;;5073574;28;45246;-83
2022/01/01 04:33:48;;;;;;;4.00;2.72;;;18.50;88.50;;;;;;5061616;28;45106;-83
2022/01/01 04:36:26;;;;;;;3.47;2.50;;;18.80;85.90;;;;;;5074408;28;45231;-83
2022/01/01 04:38:59;;;;;;;5.18;2.78;;;20.00;90.00;;;;;;5071128;28;45723;-84
2022/01/01 04:41:42;;;;;;;4.35;2.80;;;18.60;86.50;;;;;;5076937;28;45351;-84
2022/01/01 04:44:10;;;;;;;3.80;2.50;;;18.50;89.40;;;;;;5090312;28;45425;-84
2022/01/01 04:46:47;;;;;;;3.58;2.35;;;20.00;89.60;;;;;;5084429;28;45121;-83
2022/01/01 04:49:17;;;;;;;3.70;2.40;;;18.70;84.40;;;;;;5082728;28;47462;-84
2022/01/01 04:51:45;;;;;;;4.32;2.40;;;18.60;87.90;;;;;;5081127;28;45183;-84
2022/01/01 04:54:16;;;;;;;3.85;2.50;;;18.40;86.40;;;;;;5063679;28;45355;-85
2022/01/01 04:56:48;;;;;;;2.65;1.83;;;18.50;87.70;;;;;;5060193;28;45187;-84
2022/01/01 04:59:18;;;;;;;3.25;2.20;;;18.50;84.60;;;;;;5061213;28;45200;-84
2022/01/01 05:01:51;;;;;;;3.90;2.10;;;18.40;89.60;;;;;;5073924;28;45767;-84
2022/01/01 05:04:22;;;;;;;3.90;2.30;;;18.60;84.20;;;;;;5076757;28;45252;-84
2022/01/01 05:06:52;;;;;;;4.85;2.30;;;18.50;84.60;;;;;;5085470;28;45331;-84
2022/01/01 05:09:27;;;;;;;3.55;2.38;;;19.20;88.50;;;;;;5066654;28;46513;-85
2022/01/01 05:11:56;;;;;;;3.58;2.13;;;18.50;85.30;;;;;;5060856;28;45216;-84
2022/01/01 05:14:29;;;;;;;2.30;1.80;;;18.50;85.80;;;;;;5060617;28;45284;-84
2022/01/01 05:17:09;;;;;;;4.30;2.65;;;18.30;88.30;;;;;;5285621;22;45682;-81
2022/01/01 05:19:37;;;;;;;2.65;1.98;;;18.50;85.60;;;;;;5072745;28;46970;-82
2022/01/01 05:22:04;;;;;;;3.03;2.00;;;18.50;84.60;;;;;;5076849;28;45179;-83
2022/01/01 05:24:32;;;;;;;4.45;2.03;;;20.90;90.30;;;;;;5079972;28;45297;-83
2022/01/01 05:27:05;;;;;;;2.88;1.67;;;17.60;89.10;;;;;;5080717;28;45081;-83
2022/01/01 05:29:33;;;;;;;2.22;1.52;;;19.10;84.70;;;;;;5080596;28;48927;-83
2022/01/01 05:32:02;;;;;;;2.85;1.50;;;19.60;87.70;;;;;;5063040;28;45351;-83
2022/01/01 05:34:37;;;;;;;2.78;1.60;;;21.00;90.80;;;;;;5081064;28;45408;-83
2022/01/01 05:37:11;;;;;;;3.30;1.80;;;20.00;90.00;;;;;;5085794;28;45263;-84
2022/01/01 05:39:42;;;;;;;2.83;1.92;;;18.50;88.50;;;;;;5085791;28;46303;-83
2022/01/01 05:42:17;;;;;;;2.70;1.85;;;18.40;85.60;;;;;;5078723;28;44817;-82
2022/01/01 05:44:49;;;;;;;4.15;1.58;;;18.90;84.20;;;;;;5079794;28;45191;-84
2022/01/01 05:47:16;;;;;;;3.92;2.20;;;18.40;86.90;;;;;;5080163;28;45257;-82
2022/01/01 05:49:46;;;;;;;2.45;1.60;;;18.50;87.50;;;;;;5079226;28;47735;-83
2022/01/01 05:52:14;;;;;;;2.22;1.50;;;20.90;88.70;;;;;;5080023;28;44687;-84
2022/01/01 05:54:48;;;;;;;3.83;1.70;;;18.40;86.30;;;;;;5080050;28;45338;-84
2022/01/01 05:57:33;;;;;;;2.25;1.40;;;19.90;88.50;;;;;;5069987;28;45414;-84
2022/01/01 06:00:02;;;;;;;3.17;1.60;;;19.60;87.50;;;;;;5081810;28;47522;-85
2022/01/01 06:02:31;;;;;;;2.63;1.65;;;18.50;88.70;;;;;;5080461;28;45251;-83
2022/01/01 06:05:04;;;;;;;3.05;1.70;;;20.80;88.60;;;;;;5079265;28;45459;-86
2022/01/01 06:07:33;;;;;;;2.33;1.80;;;18.50;84.90;;;;;;5079728;28;44781;-86
2022/01/01 06:10:01;;;;;;;1.80;1.15;;;18.90;89.70;;;;;;5078112;28;47528;-86
2022/01/01 06:12:33;;;;;;;1.95;1.20;;;21.20;89.00;;;;;;5078372;28;45342;-84
2022/01/01 06:15:03;;;;;;;4.10;1.70;;;19.10;85.90;;;;;;5060713;28;45291;-84
2022/01/01 06:17:33;;;;;;;1.83;1.30;;;20.90;88.50;;;;;;5064258;28;45474;-83
2022/01/01 06:20:04;;;;;;;1.90;1.23;;;18.60;87.60;;;;;;5078813;28;48749;-84
2022/01/01 06:22:35;;;;;;;2.53;1.45;;;19.00;85.20;;;;;;5075447;28;45204;-84
2022/01/01 06:25:03;;;;;;;3.80;1.58;;;18.80;87.70;;;;;;5076497;28;46556;-84
2022/01/01 06:27:31;;;;;;;3.03;1.48;;;18.40;86.80;;;;;;5076244;28;45110;-84
2022/01/01 06:30:06;;;;;;;2.55;1.33;;;19.60;88.10;;;;;;5078406;28;45772;-84
2022/01/01 06:32:35;;;;;;;3.35;1.58;;;18.70;85.20;;;;;;5074244;28;45502;-84
2022/01/01 06:35:07;;;;;;;3.63;1.33;;;17.30;86.80;;;;;;5078851;28;45306;-84
2022/01/01 06:37:35;;;;;;;2.42;1.25;;;18.60;83.50;;;;;;5079816;28;45624;-84
2022/01/01 06:40:06;;;;;;;3.33;1.40;;;20.60;90.00;;;;;;5079448;28;46388;-84
2022/01/01 06:42:38;;;;;;;2.85;1.50;;;18.60;87.10;;;;;;5077625;28;44926;-84
2022/01/01 06:45:10;;;;;;;2.65;1.38;;;18.30;88.60;;;;;;5075880;28;45234;-84
2022/01/01 06:47:51;;;;;;;2.15;1.40;;;18.70;83.50;;;;;;5078127;28;45406;-84
2022/01/01 06:50:21;;;;;;;3.08;1.17;;;16.80;81.80;;;;;;5071104;28;48850;-84
2022/01/01 06:52:49;;;;;;;1.90;1.30;;;19.10;89.80;;;;;;5066645;28;45270;-84
2022/01/01 06:55:19;;;;;;;2.33;1.27;;;20.50;89.10;;;;;;5080828;28;45222;-84
2022/01/01 06:57:55;;;;;;;3.33;1.40;;;20.80;89.30;;;;;;5079251;28;45278;-84
2022/01/01 07:00:37;;;;;;;2.58;1.20;;;19.40;89.10;;;;;;5078376;28;46536;-85
2022/01/01 07:03:06;;;;;;;1.77;1.05;;;18.60;87.50;;;;;;5077367;28;45156;-84
2022/01/01 07:05:37;;;;;;;2.55;1.50;;;18.70;86.60;;;;;;5079505;28;45260;-85
2022/01/01 07:08:07;;;;;;;3.13;1.20;;;18.70;88.60;;;;;;5078510;28;45171;-84
2022/01/01 07:10:39;;;;;;;3.47;1.27;;;18.90;84.90;;;;;;5069858;28;48216;-84
2022/01/01 07:13:11;;;;;;;1.75;1.20;;;19.00;88.00;;;;;;5076676;28;45066;-85
2022/01/01 07:15:45;;;;;;;1.27;1.00;;;18.50;86.30;;;;;;5065376;28;45093;-85
2022/01/01 07:18:15;;;;;;;4.10;1.33;;;18.70;86.50;;;;;;5078675;28;45192;-85
2022/01/01 07:20:46;;;;;;;3.88;1.38;;;19.50;88.30;;;;;;5078585;28;46772;-85
2022/01/01 07:23:16;;;;;;;2.13;0.95;;;18.80;88.20;;;;;;5078829;28;45301;-85
2022/01/01 07:25:51;;;;;;;2.10;1.20;;;18.50;86.50;;;;;;5078638;28;45341;-85
2022/01/01 07:28:26;;;;;;;2.67;1.17;;;18.80;83.50;;;;;;5059906;28;45232;-85
2022/01/01 07:31:02;;;;;;;2.60;1.10;;;20.50;87.40;;;;;;5078011;28;45897;-85
2022/01/01 07:33:32;;;;;;;2.28;1.23;;;20.20;86.10;;;;;;5076519;28;45239;-85
2022/01/01 07:36:01;;;;;;;1.30;0.95;;;18.80;86.60;;;;;;5060127;28;45151;-83
2022/01/01 07:38:28;;;;;;;3.03;1.10;;;18.40;86.70;;;;;;5077384;28;45292;-85
2022/01/01 07:41:00;;;;;;;2.20;1.15;;;18.70;87.80;;;;;;5078552;28;47825;-85
2022/01/01 07:43:33;;;;;;;1.58;0.90;;;18.60;86.30;;;;;;5077542;28;45471;-86
2022/01/01 07:46:08;;;;;;;2.13;1.27;;;18.60;86.90;;;;;;5050017;28;45273;-86
2022/01/01 07:48:40;;;;;;;1.95;1.10;;;19.40;88.80;;;;;;5080512;28;44862;-86
2022/01/01 07:51:09;;;;;;;2.42;1.25;;;18.50;83.10;;;;;;5062819;28;45657;-84
2022/01/01 07:53:49;;;;;;;1.90;1.00;;;20.40;90.20;;;;;;5076992;28;45247;-84
2022/01/01 07:56:20;;;;;;;1.67;1.05;;;18.80;88.30;;;;;;5078563;28;45195;-85
2022/01/01 07:58:53;;;;;;;2.25;1.20;;;18.10;87.90;;;;;;5078538;28;45370;-87
2022/01/01 08:01:25;;;;;;;4.07;1.20;;;18.60;88.20;;;;;;5058071;28;47639;-87
2022/01/01 08:04:07;;;;;;;2.38;1.17;;;19.00;86.30;;;;;;5076726;28;45184;-86
2022/01/01 08:06:35;;;;;;;1.20;0.90;;;18.60;88.30;;;;;;5077859;28;45290;-85
2022/01/01 08:09:06;;;;;;;1.75;0.98;;;18.50;83.70;;;;;;5081271;28;45295;-85
2022/01/01 08:11:35;;;;;;;1.92;1.00;;;18.40;86.80;;;;;;5064285;28;46811;-84
2022/01/01 08:14:03;;;;;;;2.10;1.25;;;19.10;87.40;;;;;;5064079;28;45280;-83
2022/01/01 08:16:43;;;;;;;1.55;1.05;;;20.80;90.10;;;;;;5079891;28;45632;-83
2022/01/01 08:19:17;;;;;;;1.48;0.80;;;18.40;86.50;;;;;;5069988;28;45259;-83
2022/01/01 08:21:59;;;;;;;1.38;0.80;;;18.70;84.60;;;;;;5079004;28;45586;-84
2022/01/01 08:24:35;;;;;;;2.20;1.10;;;18.50;83.50;;;;;;5066506;28;45335;-84
2022/01/01 08:27:11;;;;;;;1.40;0.82;;;18.70;84.50;;;;;;5084712;28;45212;-84
2022/01/01 08:37:59;;;;;;;2.13;1.00;;;18.70;84.50;;;;;;5075766;28;45445;-86
2022/01/01 08:40:30;;;;;;;2.28;1.00;;;18.40;86.40;;;;;;5077164;28;45312;-85
2022/01/01 08:42:59;;;;;;;1.35;0.90;;;21.20;90.30;;;;;;5061765;28;47349;-84
2022/01/01 08:45:53;;;;;;;1.40;0.70;;;16.40;85.50;;;;;;5080285;28;45229;-87
2022/01/01 08:51:23;;;;;;;1.30;0.88;;;18.50;83.40;;;;;;5084753;28;44818;-86
2022/01/01 08:54:13;;;;;;;2.83;1.13;;;18.60;84.00;;;;;;5053206;28;45749;-86
2022/01/01 08:56:46;;;;;;;1.00;0.63;;;16.90;82.00;;;;;;5080986;28;45400;-85
2022/01/01 08:59:17;;;;;;;2.08;0.93;;;18.70;83.90;;;;;;5083062;28;44818;-84
2022/01/01 09:01:54;;;;;;;1.20;0.90;;;18.40;87.00;;;;;;5069171;28;44767;-83
2022/01/01 09:04:26;;;;;;;2.67;1.20;;;17.00;82.10;;;;;;5083899;28;45483;-83
2022/01/01 09:06:57;;;;;;;1.50;1.00;;;18.80;83.70;;;;;;5070718;28;44998;-83
2022/01/01 09:09:27;;;;;;;4.15;0.88;;;18.40;83.90;;;;;;5074483;28;45272;-84
2022/01/01 09:11:58;;;;;;;1.77;0.77;;;18.60;83.40;;;;;;5076942;28;44784;-84
2022/01/01 09:14:29;;;;;;;1.70;1.05;;;18.80;83.50;;;;;;5085987;28;47507;-83
2022/01/01 09:19:49;;;;;;;2.85;1.10;;;18.90;85.00;;;;;;5083888;28;45172;-84
2022/01/01 09:22:31;;;;;;;2.63;1.00;;;18.90;83.60;;;;;;5065861;28;44760;-84
2022/01/01 09:25:13;;;;;;;3.80;0.95;;;18.50;83.00;;;;;;5083422;28;45791;-84
2022/01/01 09:27:52;;;;;;;1.02;0.85;;;21.30;85.70;;;;;;5085659;28;45057;-85
2022/01/01 09:30:24;;;;;;;1.27;0.80;;;18.30;83.30;;;;;;5085438;28;45186;-83
2022/01/01 09:32:56;;;;;;;1.52;1.00;;;18.70;84.20;;;;;;5075492;28;45156;-84
2022/01/01 09:35:26;;;;;;;1.60;0.73;;;17.00;84.10;;;;;;5081827;28;46522;-84
2022/01/01 09:41:10;;;;;;;1.58;0.93;;;18.40;86.10;;;;;;5083521;28;45347;-86
2022/01/01 09:43:38;;;;;;;1.48;1.00;;;18.50;83.30;;;;;;5078048;28;45314;-86
2022/01/01 09:46:06;;;;;;;0.60;0.60;;;19.70;89.60;;;;;;5077963;28;46376;-86
2022/01/01 09:48:34;;;;;;;0.93;0.73;;;19.00;88.80;;;;;;5078539;28;45270;-86
2022/01/01 09:51:06;;;;;;;1.65;0.90;;;19.50;88.70;;;;;;5078690;28;45494;-85
2022/01/01 09:53:35;;;;;;;0.88;0.60;;;18.60;85.00;;;;;;5078621;28;45279;-85
2022/01/01 09:56:05;;;;;;;0.70;0.68;;;18.80;86.20;;;;;;5077956;28;47237;-85
2022/01/01 09:58:37;;;;;;;0.73;0.70;;;18.70;87.70;;;;;;5063058;28;45433;-86
2022/01/01 10:01:10;;;;;;;3.10;1.33;;;20.30;89.20;;;;;;5079243;28;45336;-85
2022/01/01 10:03:41;;;;;;;5.65;1.27;;;18.50;87.80;;;;;;5079734;28;45212;-84
2022/01/01 10:06:13;;;;;;;1.52;0.90;;;18.40;88.70;;;;;;5061757;28;46493;-84
2022/01/01 10:08:43;;;;;;;2.28;0.98;;;18.60;85.10;;;;;;5077638;28;45093;-83
2022/01/01 10:11:14;;;;;;;2.10;1.00;;;19.00;86.40;;;;;;5077670;28;45262;-83
2022/01/01 10:13:42;;;;;;;2.25;0.70;;;18.30;88.00;;;;;;5075264;28;45510;-83
2022/01/01 10:16:11;;;;;;;1.60;1.17;;;18.30;87.70;;;;;;5070548;28;48015;-84
2022/01/01 10:18:41;;;;;;;2.00;1.08;;;18.30;87.80;;;;;;5075393;28;45305;-83
2022/01/01 10:21:11;;;;;;;4.85;1.23;;;18.50;86.30;;;;;;5068869;28;45276;-81
2022/01/01 10:23:44;;;;;;;5.85;1.20;;;18.40;83.20;;;;;;5071217;28;45283;-85
2022/01/01 10:29:12;;;;;;;2.60;1.30;;;18.40;83.50;;;;;;5069013;28;45537;-80
2022/01/01 10:31:43;;;;;;;1.30;0.88;;;18.40;83.50;;;;;;5061640;28;45172;-80
2022/01/01 10:34:15;;;;;;;5.00;1.63;;;18.40;83.20;;;;;;5064718;28;46445;-80
2022/01/01 10:36:49;;;;;;;3.28;1.13;;;18.40;83.10;;;;;;5063346;28;45379;-80
2022/01/01 10:39:21;;;;;;;2.03;1.10;;;18.40;83.00;;;;;;5069122;28;45295;-80
2022/01/01 10:41:51;;;;;;;2.13;1.05;;;18.40;83.00;;;;;;5071266;28;45164;-80
2022/01/01 10:44:24;;;;;;;1.70;1.08;;;18.40;82.80;;;;;;5070548;28;45291;-80
2022/01/01 10:46:51;;;;;;;1.42;0.90;;;18.40;82.70;;;;;;5070523;28;47584;-81
2022/01/01 10:50:03;;;;;;;2.00;1.13;;;18.40;82.70;;;;;;5072189;28;45529;-81
2022/01/01 10:52:35;;;;;;;2.10;1.08;;;18.40;82.60;;;;;;5073096;28;45166;-81
2022/01/01 10:55:05;;;;;;;3.00;1.23;;;18.40;82.50;;;;;;5068375;28;45307;-81
2022/01/01 10:57:34;;;;;;;2.92;1.20;;;18.50;82.50;;;;;;5052388;28;45772;-81
2022/01/01 11:00:18;;;;;;;2.03;1.10;;;18.50;82.40;;;;;;5052136;28;45317;-81
2022/01/01 11:02:51;;;;;;;3.45;1.20;;;18.50;82.30;;;;;;5069252;28;45240;-81
2022/01/01 11:05:28;;;;;;;1.75;1.02;;;18.50;82.20;;;;;;5065422;28;45183;-80
2022/01/01 11:07:58;;;;;;;0.68;0.65;;;18.50;82.20;;;;;;5070222;28;47300;-81
2022/01/01 11:10:26;;;;;;;1.75;0.90;;;18.50;83.00;;;;;;5070148;28;45606;-81
2022/01/01 11:12:54;;;;;;;1.88;1.00;;;18.50;82.20;;;;;;5069731;28;45293;-81
2022/01/01 11:15:22;;;;;;;1.98;1.13;;;18.60;82.20;;;;;;5068793;28;45369;-81
2022/01/01 11:17:50;;;;;;;1.90;1.08;;;18.50;82.00;;;;;;5068966;28;47477;-81
2022/01/01 11:20:19;;;;;;;1.83;0.98;;;18.50;82.10;;;;;;5070836;28;45200;-81
2022/01/01 11:22:46;;;;;;;1.40;0.98;;;18.50;82.40;;;;;;5074412;28;45244;-81
2022/01/01 11:25:16;;;;;;;1.85;0.90;;;18.50;82.10;;;;;;5070878;28;45303;-81
2022/01/01 11:27:44;;;;;;;1.58;0.95;;;18.50;82.20;;;;;;5072944;28;45530;-81
2022/01/01 11:30:13;;;;;;;1.42;0.85;;;18.50;82.40;;;;;;5072640;28;45184;-81
2022/01/01 11:32:45;;;;;;;1.92;1.00;;;18.50;82.20;;;;;;5071597;28;45114;-81
2022/01/01 11:35:19;;;;;;;2.55;0.93;;;18.50;82.10;;;;;;5071348;28;45344;-81
2022/01/01 11:38:07;;;;;;;1.77;0.90;;;18.50;82.10;;;;;;5054475;28;46434;-81
2022/01/01 11:40:53;;;;;;;1.98;1.10;;;18.50;82.20;;;;;;5073062;28;46067;-81
2022/01/01 11:43:39;;;;;;;1.17;0.80;;;18.50;81.90;;;;;;5075486;28;45368;-81
2022/01/01 11:46:11;;;;;;;2.58;0.90;;;17.20;80.70;;;;;;5076758;28;45308;-81
2022/01/01 11:48:56;;;;;;;1.58;0.95;;;18.50;81.90;;;;;;5075508;28;47278;-81
2022/01/01 11:51:32;;;;;;;1.75;0.88;;;18.60;81.90;;;;;;5068681;28;46613;-81
2022/01/01 11:54:22;;;;;;;1.88;1.00;;;18.60;81.80;;;;;;5074198;28;45212;-81
2022/01/01 11:57:02;;;;;;;3.03;1.05;;;18.60;81.80;;;;;;5075236;28;45244;-80
2022/01/01 11:59:31;;;;;;;1.23;0.90;;;18.60;81.70;;;;;;5074726;28;47977;-81
2022/01/01 12:02:07;;;;;;;1.65;1.00;;;18.60;81.70;;;;;;5074768;28;45284;-81
2022/01/01 12:04:39;;;;;;;1.30;1.10;;;18.60;81.70;;;;;;5075985;28;45189;-81
2022/01/01 12:07:28;;;;;;;2.00;1.13;;;18.60;82.00;;;;;;5076338;28;45473;-81
2022/01/01 12:10:18;;;;;;;2.63;1.00;;;18.50;81.60;;;;;;5071428;28;45494;-81
2022/01/01 12:12:49;;;;;;;1.77;0.98;;;18.60;81.70;;;;;;5067634;28;45600;-81
2022/01/01 12:15:35;;;;;;;1.95;0.95;;;18.60;81.80;;;;;;5068296;28;45359;-81
2022/01/01 12:18:04;;;;;;;2.65;1.20;;;18.80;82.00;;;;;;5074734;28;45394;-81
2022/01/01 12:20:36;;;;;;;1.20;0.90;;;18.50;81.80;;;;;;5079212;28;47851;-81
2022/01/01 12:23:06;;;;;;;1.45;0.98;;;18.60;81.70;;;;;;5075460;28;45369;-81
2022/01/01 12:25:37;;;;;;;0.75;0.73;;;18.60;81.70;;;;;;5074160;28;45309;-81
2022/01/01 12:28:12;;;;;;;1.95;1.10;;;18.60;81.70;;;;;;5057767;28;45172;-81
2022/01/01 12:30:47;;;;;;;1.63;1.00;;;18.50;81.70;;;;;;5075688;28;45351;-80
2022/01/01 12:33:26;;;;;;;1.55;1.02;;;18.60;81.80;;;;;;5056589;28;45400;-81
2022/01/01 12:35:56;;;;;;;1.65;1.00;;;18.50;81.50;;;;;;5073741;28;45227;-80
2022/01/01 12:38:26;;;;;;;1.33;0.90;;;18.50;81.70;;;;;;5073763;28;45567;-80
2022/01/01 12:41:13;;;;;;;2.20;1.10;;;18.60;81.70;;;;;;5057041;28;47154;-80
2022/01/01 12:43:52;;;;;;;1.67;1.05;;;18.60;81.90;;;;;;5073219;28;45388;-80
2022/01/01 12:46:22;;;;;;;1.55;0.90;;;18.60;81.70;;;;;;5066485;28;45141;-80
2022/01/01 12:48:52;;;;;;;1.55;0.90;;;18.60;82.80;;;;;;5072190;28;45529;-80
2022/01/01 12:51:22;;;;;;;1.13;0.85;;;18.60;81.70;;;;;;5073131;28;47377;-80
2022/01/01 12:53:55;;;;;;;1.55;1.00;;;18.60;81.70;;;;;;5073575;28;45255;-80
2022/01/01 12:56:23;;;;;;;1.58;1.00;;;18.60;81.60;;;;;;5073101;28;45137;-80
2022/01/01 12:58:57;;;;;;;1.38;0.93;;;18.60;81.50;;;;;;5074577;28;45185;-80
2022/01/01 13:01:28;;;;;;;1.38;0.90;;;18.60;81.50;;;;;;5066049;28;48321;-81
2022/01/01 13:03:59;;;;;;;1.67;0.90;;;18.60;81.50;;;;;;5072804;28;46019;-80
2022/01/01 13:06:29;;;;;;;1.42;0.93;;;18.60;81.60;;;;;;5075055;28;45150;-81
2022/01/01 13:08:59;;;;;;;1.52;0.85;;;19.10;82.10;;;;;;5075559;28;45301;-81
2022/01/01 13:11:28;;;;;;;1.60;0.90;;;18.60;81.70;;;;;;5076190;28;47460;-81
2022/01/01 13:13:58;;;;;;;1.73;0.93;;;18.60;81.80;;;;;;5075767;28;45476;-81
2022/01/01 13:16:27;;;;;;;1.75;0.95;;;18.90;83.20;;;;;;5075977;28;45485;-81
2022/01/01 13:18:57;;;;;;;1.23;0.90;;;18.60;82.00;;;;;;5076565;28;45541;-81
2022/01/01 13:21:27;;;;;;;1.23;0.85;;;18.60;83.60;;;;;;5075929;28;45842;-80
2022/01/01 13:23:55;;;;;;;1.30;1.00;;;18.60;82.40;;;;;;5076072;28;45366;-81
2022/01/01 13:26:44;;;;;;;1.35;0.88;;;18.60;82.90;;;;;;5076994;28;45124;-81
2022/01/01 13:29:14;;;;;;;0.88;0.70;;;18.60;81.50;;;;;;5074982;28;45385;-81
2022/01/01 13:31:43;;;;;;;1.98;1.08;;;18.60;81.90;;;;;;5059598;28;46038;-81
2022/01/01 13:34:13;;;;;;;1.05;0.85;;;18.60;81.70;;;;;;5076866;28;45287;-81
2022/01/01 13:36:43;;;;;;;2.83;1.02;;;18.60;81.70;;;;;;5076382;28;45238;-81
2022/01/01 13:39:13;;;;;;;2.83;1.00;;;18.60;82.10;;;;;;5076011;28;45294;-81